createdAt,value
2023-06-09T00:00:56.496Z,72.61
2023-06-09T00:03:23.508Z,72.51
2023-06-09T00:05:50.665Z,72.86
2023-06-09T00:08:17.658Z,72.72
2023-06-09T00:10:44.452Z,72.78
2023-06-09T00:13:11.558Z,72.48
2023-06-09T00:15:40.447Z,72.61
2023-06-09T00:18:17.112Z,72.63
2023-06-09T00:20:44.258Z,72.66
2023-06-09T00:23:11.020Z,72.68
2023-06-09T00:25:37.871Z,72.25
2023-06-09T00:28:04.803Z,72.56
2023-06-09T00:30:39.517Z,72.72
2023-06-09T00:33:10.710Z,72.28
2023-06-09T00:35:37.489Z,72.33
2023-06-09T00:38:04.289Z,72.35
2023-06-09T00:40:31.168Z,72.45
2023-06-09T00:42:57.976Z,72.35
2023-06-09T00:45:24.668Z,72.12
2023-06-09T00:47:52.674Z,72.41
2023-06-09T00:50:21.523Z,72.46
2023-06-09T00:52:49.934Z,72.23
2023-06-09T00:55:19.256Z,72.56
2023-06-09T00:57:48.331Z,72.45
2023-06-09T01:00:17.490Z,72.57
2023-06-09T01:02:44.722Z,72.63
2023-06-09T01:05:13.995Z,72.66
2023-06-09T01:08:02.752Z,73.17
2023-06-09T01:10:58.219Z,73.66
2023-06-09T01:14:02.199Z,73.48
2023-06-09T01:16:45.278Z,73.59
2023-06-09T01:19:34.200Z,73.91
2023-06-09T01:22:07.619Z,73.89
2023-06-09T01:24:58.615Z,73.86
2023-06-09T01:27:27.093Z,73.65
2023-06-09T01:29:56.375Z,73.68
2023-06-09T01:32:25.065Z,73.70
2023-06-09T01:34:53.990Z,73.71
2023-06-09T01:37:21.301Z,73.97
2023-06-09T01:39:48.343Z,73.83
2023-06-09T01:42:14.966Z,73.82
2023-06-09T01:44:41.686Z,73.65
2023-06-09T01:47:08.779Z,73.60
2023-06-09T01:50:04.633Z,73.76
2023-06-09T01:52:50.502Z,73.73
2023-06-09T01:55:33.735Z,73.77
2023-06-09T01:58:10.543Z,73.98
2023-06-09T02:00:38.339Z,73.89
2023-06-09T02:03:10.522Z,73.86
2023-06-09T02:05:38.380Z,73.61
2023-06-09T02:08:05.764Z,73.93
2023-06-09T02:10:34.018Z,73.95
2023-06-09T02:13:19.989Z,74.15
2023-06-09T02:15:47.570Z,74.05
2023-06-09T02:18:16.272Z,74.05
2023-06-09T02:20:44.039Z,73.71
2023-06-09T02:23:11.880Z,73.66
2023-06-09T02:25:39.125Z,73.87
2023-06-09T02:28:07.315Z,73.96
2023-06-09T02:30:34.434Z,74.07
2023-06-09T02:33:01.695Z,73.89
2023-06-09T02:35:31.342Z,73.92
2023-06-09T02:38:02.254Z,74.05
2023-06-09T02:40:29.148Z,74.05
2023-06-09T02:42:55.837Z,74.21
2023-06-09T02:45:24.638Z,74.26
2023-06-09T02:47:52.109Z,74.42
2023-06-09T02:50:19.396Z,74.65
2023-06-09T02:52:46.107Z,74.53
2023-06-09T02:55:12.959Z,74.60
2023-06-09T02:57:39.761Z,74.72
2023-06-09T03:00:08.834Z,74.68
2023-06-09T03:02:35.799Z,74.92
2023-06-09T03:05:02.809Z,74.91
2023-06-09T03:07:29.475Z,74.81
2023-06-09T03:09:56.156Z,74.99
2023-06-09T03:12:23.057Z,74.98
2023-06-09T03:14:49.727Z,75.32
2023-06-09T03:17:18.674Z,75.10
2023-06-09T03:19:45.689Z,75.26
2023-06-09T03:22:12.467Z,75.24
2023-06-09T03:24:40.299Z,75.26
2023-06-09T03:27:07.119Z,75.67
2023-06-09T03:29:33.768Z,75.75
2023-06-09T03:32:00.470Z,75.57
2023-06-09T03:34:27.271Z,75.76
2023-06-09T03:36:53.862Z,75.80
2023-06-09T03:39:20.598Z,76.06
2023-06-09T03:41:47.392Z,76.34
2023-06-09T03:44:14.094Z,76.15
2023-06-09T03:46:40.934Z,76.36
2023-06-09T03:49:08.068Z,76.29
2023-06-09T03:51:34.824Z,76.40
2023-06-09T03:54:01.553Z,76.56
2023-06-09T03:56:28.146Z,76.36
2023-06-09T03:58:55.263Z,76.59
2023-06-09T04:01:22.522Z,76.54
2023-06-09T04:03:49.510Z,76.35
2023-06-09T04:06:16.267Z,76.68
2023-06-09T04:08:45.545Z,76.50
2023-06-09T04:11:12.446Z,76.54
2023-06-09T04:13:39.057Z,76.59
2023-06-09T04:16:06.557Z,76.58
2023-06-09T04:18:33.315Z,76.63
2023-06-09T04:21:00.031Z,76.78
2023-06-09T04:23:28.862Z,76.65
2023-06-09T04:25:56.043Z,76.74
2023-06-09T04:28:22.711Z,76.66
2023-06-09T04:30:51.366Z,76.81
2023-06-09T04:33:19.572Z,76.68
2023-06-09T04:35:48.014Z,76.84
2023-06-09T04:38:15.361Z,76.68
2023-06-09T04:40:42.361Z,76.92
2023-06-09T04:43:09.293Z,76.59
2023-06-09T04:45:36.891Z,76.37
2023-06-09T04:48:04.270Z,76.28
2023-06-09T04:50:33.925Z,76.01
2023-06-09T04:53:05.176Z,75.60
2023-06-09T04:55:32.422Z,75.27
2023-06-09T04:57:59.078Z,74.83
2023-06-09T05:00:28.077Z,74.44
2023-06-09T05:02:55.952Z,74.25
2023-06-09T05:05:22.782Z,73.57
2023-06-09T05:07:49.715Z,73.32
2023-06-09T05:10:16.860Z,73.17
2023-06-09T05:12:43.680Z,72.99
2023-06-09T05:15:11.187Z,72.36
2023-06-09T05:17:39.133Z,72.07
2023-06-09T05:20:09.460Z,72.25
2023-06-09T05:22:37.496Z,71.87
2023-06-09T05:25:04.922Z,71.57
2023-06-09T05:27:31.562Z,71.31
2023-06-09T05:29:58.523Z,70.93
2023-06-09T05:32:25.419Z,70.94
2023-06-09T05:34:52.162Z,70.74
2023-06-09T05:37:18.819Z,70.07
2023-06-09T05:39:45.898Z,69.27
2023-06-09T05:42:13.739Z,68.59
2023-06-09T05:44:40.540Z,67.33
2023-06-09T05:47:07.451Z,66.79
2023-06-09T05:49:35.516Z,66.06
2023-06-09T05:52:02.948Z,65.84
2023-06-09T05:54:29.819Z,65.32
2023-06-09T05:56:56.520Z,64.37
2023-06-09T05:59:24.358Z,63.52
2023-06-09T06:01:51.980Z,63.41
2023-06-09T06:04:18.937Z,63.54
2023-06-09T06:06:45.830Z,63.27
2023-06-09T06:09:12.968Z,62.76
2023-06-09T06:11:39.930Z,62.29
2023-06-09T06:14:06.657Z,61.59
2023-06-09T06:16:33.421Z,60.03
2023-06-09T06:19:00.188Z,58.49
2023-06-09T06:21:26.889Z,58.59
2023-06-09T06:23:53.519Z,57.62
2023-06-09T06:26:20.202Z,56.99
2023-06-09T06:28:47.417Z,56.83
2023-06-09T06:31:14.988Z,56.53
2023-06-09T06:33:42.921Z,56.27
2023-06-09T06:36:09.999Z,55.21
2023-06-09T06:38:36.740Z,55.13
2023-06-09T06:41:04.867Z,55.26
2023-06-09T06:43:31.745Z,54.89
2023-06-09T06:45:58.532Z,55.07
2023-06-09T06:48:27.935Z,54.60
2023-06-09T06:50:54.975Z,53.42
2023-06-09T06:53:21.933Z,53.11
2023-06-09T06:55:48.636Z,52.27
2023-06-09T06:58:15.882Z,50.50
2023-06-09T07:00:42.682Z,51.61
2023-06-09T07:03:10.568Z,51.06
2023-06-09T07:05:37.747Z,51.46
2023-06-09T07:08:04.888Z,51.60
2023-06-09T07:10:32.317Z,50.15
2023-06-09T07:12:59.094Z,48.85
2023-06-09T07:15:25.916Z,49.40
2023-06-09T07:17:52.642Z,49.62
2023-06-09T07:20:19.381Z,49.46
2023-06-09T07:22:51.743Z,48.42
2023-06-09T07:25:18.736Z,48.90
2023-06-09T07:27:45.659Z,47.84
2023-06-09T07:30:12.886Z,47.07
2023-06-09T07:32:42.316Z,46.81
2023-06-09T07:35:14.423Z,47.08
2023-06-09T07:37:43.502Z,46.48
2023-06-09T07:40:19.204Z,46.55
2023-06-09T07:42:48.764Z,46.45
2023-06-09T07:45:15.778Z,45.83
2023-06-09T07:47:42.566Z,45.28
2023-06-09T07:50:10.142Z,45.38
2023-06-09T07:52:39.984Z,45.03
2023-06-09T07:55:12.399Z,45.17
2023-06-09T07:57:41.784Z,44.38
2023-06-09T08:00:09.395Z,44.69
2023-06-09T08:02:43.096Z,44.63
2023-06-09T08:05:11.104Z,44.96
2023-06-09T08:07:38.406Z,43.88
2023-06-09T08:10:07.624Z,43.93
2023-06-09T08:12:36.341Z,42.73
2023-06-09T08:15:03.102Z,42.33
2023-06-09T08:17:29.885Z,42.45
2023-06-09T08:19:56.843Z,42.22
2023-06-09T08:22:23.468Z,41.59
2023-06-09T08:24:50.450Z,41.54
2023-06-09T08:27:17.126Z,41.05
2023-06-09T08:29:43.740Z,40.87
2023-06-09T08:32:10.420Z,40.10
2023-06-09T08:34:37.148Z,39.63
2023-06-09T08:37:04.784Z,39.00
2023-06-09T08:39:32.021Z,39.68
2023-06-09T08:42:01.799Z,40.02
2023-06-09T08:44:29.850Z,40.65
2023-06-09T08:47:03.525Z,40.46
2023-06-09T08:49:30.860Z,41.26
2023-06-09T08:51:59.713Z,41.19
2023-06-09T08:54:27.449Z,41.56
2023-06-09T08:56:54.340Z,40.95
2023-06-09T08:59:22.998Z,40.67
2023-06-09T09:01:51.270Z,40.16
2023-06-09T09:04:18.823Z,40.53
2023-06-09T09:06:47.071Z,40.71
2023-06-09T09:09:14.015Z,41.41
2023-06-09T09:11:41.099Z,40.10
2023-06-09T09:14:11.710Z,38.42
2023-06-09T09:16:38.668Z,38.14
2023-06-09T09:19:05.895Z,37.26
2023-06-09T09:21:35.666Z,36.95
2023-06-09T09:24:05.738Z,37.07
2023-06-09T09:26:33.481Z,37.88
2023-06-09T09:29:07.482Z,37.79
2023-06-09T09:31:37.394Z,37.16
2023-06-09T09:34:04.538Z,36.94
2023-06-09T09:36:32.054Z,35.96
2023-06-09T09:39:06.297Z,35.57
2023-06-09T09:41:33.126Z,35.66
2023-06-09T09:43:59.718Z,35.20
2023-06-09T09:46:26.635Z,34.57
2023-06-09T09:48:55.686Z,35.17
2023-06-09T09:51:22.883Z,35.36
2023-06-09T09:53:51.668Z,35.01
2023-06-09T09:56:22.950Z,34.47
2023-06-09T09:58:53.737Z,35.22
2023-06-09T10:01:28.422Z,35.43
2023-06-09T10:03:56.494Z,35.36
2023-06-09T10:06:28.696Z,34.96
2023-06-09T10:08:57.352Z,34.65
2023-06-09T10:11:29.574Z,34.87
2023-06-09T10:13:56.273Z,34.71
2023-06-09T10:16:24.565Z,34.82
2023-06-09T10:18:52.035Z,35.34
2023-06-09T10:21:19.297Z,35.69
2023-06-09T10:23:55.556Z,35.46
2023-06-09T10:26:27.062Z,35.33
2023-06-09T10:28:53.697Z,35.46
2023-06-09T10:31:22.551Z,35.99
2023-06-09T10:33:50.192Z,35.81
2023-06-09T10:36:17.227Z,35.89
2023-06-09T10:38:46.702Z,35.69
2023-06-09T10:41:29.439Z,35.03
2023-06-09T10:44:19.177Z,34.66
2023-06-09T10:46:51.935Z,35.33
2023-06-09T10:49:30.676Z,34.92
2023-06-09T10:51:57.364Z,35.23
2023-06-09T10:54:25.723Z,34.80
2023-06-09T10:57:04.973Z,35.55
2023-06-09T10:59:31.806Z,35.14
2023-06-09T11:02:05.167Z,35.67
2023-06-09T11:04:47.982Z,35.78
2023-06-09T11:07:27.884Z,35.31
2023-06-09T11:09:57.534Z,35.11
2023-06-09T11:12:39.880Z,35.31
2023-06-09T11:15:08.868Z,35.30
2023-06-09T11:17:43.327Z,35.63
2023-06-09T11:20:10.433Z,35.75
2023-06-09T11:22:43.949Z,34.99
2023-06-09T11:25:20.537Z,35.09
2023-06-09T11:28:10.727Z,34.89
2023-06-09T11:31:01.743Z,34.45
2023-06-09T11:33:46.796Z,34.24
2023-06-09T11:36:31.885Z,34.16
2023-06-09T11:39:08.214Z,33.02
2023-06-09T11:41:35.154Z,32.78
2023-06-09T11:44:01.831Z,32.79
2023-06-09T11:46:28.700Z,33.09
2023-06-09T11:48:59.934Z,33.32
2023-06-09T11:51:26.812Z,33.48
2023-06-09T11:53:53.974Z,32.58
2023-06-09T11:56:21.149Z,32.63
2023-06-09T11:58:47.893Z,32.41
2023-06-09T12:01:14.542Z,31.87
2023-06-09T12:03:41.561Z,32.74
2023-06-09T12:06:09.314Z,33.06
2023-06-09T12:08:35.926Z,33.18
2023-06-09T12:11:03.476Z,33.82
2023-06-09T12:13:30.127Z,34.23
2023-06-09T12:15:56.874Z,34.92
2023-06-09T12:18:23.724Z,35.41
2023-06-09T12:20:52.284Z,35.98
2023-06-09T12:23:19.213Z,35.87
2023-06-09T12:25:50.929Z,35.73
2023-06-09T12:28:27.494Z,36.04
2023-06-09T12:30:56.022Z,35.77
2023-06-09T12:33:31.360Z,35.52
2023-06-09T12:36:12.212Z,36.21
2023-06-09T12:38:45.113Z,36.73
2023-06-09T12:41:14.030Z,36.81
2023-06-09T12:44:01.669Z,36.77
2023-06-09T12:46:29.802Z,35.76
2023-06-09T12:49:04.728Z,35.81
2023-06-09T12:51:33.154Z,36.02
2023-06-09T12:54:00.542Z,36.74
2023-06-09T12:56:27.844Z,36.64
2023-06-09T12:58:55.594Z,36.94
2023-06-09T13:01:23.596Z,36.89
2023-06-09T13:03:51.503Z,37.76
2023-06-09T13:06:18.830Z,38.60
2023-06-09T13:08:46.308Z,39.45
2023-06-09T13:11:13.433Z,40.52
2023-06-09T13:13:46.670Z,40.85
2023-06-09T13:16:13.357Z,41.31
2023-06-09T13:18:40.831Z,41.48
2023-06-09T13:21:07.905Z,42.01
2023-06-09T13:23:34.685Z,42.60
2023-06-09T13:26:01.659Z,43.11
2023-06-09T13:28:28.787Z,43.29
2023-06-09T13:30:55.692Z,43.36
2023-06-09T13:33:22.729Z,43.49
2023-06-09T13:35:50.049Z,43.54
2023-06-09T13:38:16.737Z,43.94
2023-06-09T13:40:46.673Z,44.44
2023-06-09T13:43:17.424Z,44.69
2023-06-09T13:45:44.378Z,44.93
2023-06-09T13:48:12.354Z,44.86
2023-06-09T13:50:40.390Z,44.78
2023-06-09T13:53:10.628Z,45.54
2023-06-09T13:55:37.348Z,46.47
2023-06-09T13:58:04.425Z,46.75
2023-06-09T14:00:31.022Z,47.13
2023-06-09T14:02:57.957Z,47.53
2023-06-09T14:05:26.235Z,47.82
2023-06-09T14:07:53.057Z,47.66
2023-06-09T14:10:20.586Z,47.29
2023-06-09T14:12:49.665Z,46.99
2023-06-09T14:17:50.930Z,46.59
2023-06-09T14:20:22.425Z,46.40
2023-06-09T14:22:51.150Z,46.21
2023-06-09T14:25:27.429Z,45.79
2023-06-09T14:27:55.008Z,45.66
2023-06-09T14:30:22.895Z,46.00
2023-06-09T14:32:52.485Z,46.10
2023-06-09T14:35:23.849Z,46.19
2023-06-09T14:37:52.561Z,45.86
2023-06-09T14:40:19.723Z,45.78
2023-06-09T14:42:50.073Z,46.03
2023-06-09T14:45:24.236Z,45.54
2023-06-09T14:48:01.630Z,45.80
2023-06-09T14:50:32.835Z,45.48
2023-06-09T14:52:59.994Z,45.82
2023-06-09T14:55:31.766Z,46.33
2023-06-09T14:58:01.210Z,46.49
2023-06-09T15:00:28.888Z,46.83
2023-06-09T15:02:57.615Z,46.60
2023-06-09T15:05:27.510Z,46.30
2023-06-09T15:07:56.240Z,45.88
2023-06-09T15:10:27.340Z,45.27
2023-06-09T15:12:54.364Z,45.06
2023-06-09T15:15:23.486Z,44.97
2023-06-09T15:17:51.012Z,44.85
2023-06-09T15:20:18.456Z,44.93
2023-06-09T15:22:45.166Z,44.99
2023-06-09T15:25:12.214Z,44.86
2023-06-09T15:27:41.237Z,44.74
2023-06-09T15:30:08.801Z,44.71
2023-06-09T15:32:35.866Z,44.80
2023-06-09T15:35:02.622Z,44.84
2023-06-09T15:37:29.277Z,45.20
2023-06-09T15:39:56.704Z,45.60
2023-06-09T15:42:23.992Z,45.98
2023-06-09T15:44:50.693Z,45.98
2023-06-09T15:47:17.444Z,46.47
2023-06-09T15:49:44.425Z,46.56
2023-06-09T15:52:11.088Z,47.16
2023-06-09T15:54:37.700Z,47.49
2023-06-09T15:57:04.963Z,48.46
2023-06-09T15:59:31.673Z,49.15
2023-06-09T16:01:58.383Z,49.49
2023-06-09T16:04:25.246Z,49.56
2023-06-09T16:06:52.697Z,49.87
2023-06-09T16:09:19.558Z,50.46
2023-06-09T16:11:46.441Z,50.80
2023-06-09T16:14:13.142Z,51.10
2023-06-09T16:16:39.837Z,51.63
2023-06-09T16:19:06.567Z,51.62
2023-06-09T16:21:34.235Z,51.81
2023-06-09T16:24:02.995Z,52.16
2023-06-09T16:26:29.739Z,51.97
2023-06-09T16:28:56.394Z,52.00
2023-06-09T16:31:23.078Z,51.93
2023-06-09T16:33:49.793Z,53.02
2023-06-09T16:36:16.506Z,53.76
2023-06-09T16:38:43.625Z,53.97
2023-06-09T16:41:10.963Z,53.33
2023-06-09T16:43:40.836Z,52.94
2023-06-09T16:46:07.738Z,52.80
2023-06-09T16:48:37.391Z,52.87
2023-06-09T16:51:04.594Z,53.39
2023-06-09T16:53:31.680Z,53.59
2023-06-09T16:55:59.032Z,53.61
2023-06-09T16:58:25.717Z,53.72
2023-06-09T17:00:52.375Z,53.90
2023-06-09T17:03:19.274Z,54.26
2023-06-09T17:05:46.003Z,54.13
2023-06-09T17:08:13.060Z,54.25
2023-06-09T17:10:39.939Z,54.10
2023-06-09T17:13:06.965Z,54.19
2023-06-09T17:15:33.991Z,54.53
2023-06-09T17:18:01.135Z,54.78
2023-06-09T17:20:28.806Z,55.08
2023-06-09T17:22:55.786Z,55.03
2023-06-09T17:25:22.964Z,55.54
2023-06-09T17:27:49.807Z,55.76
2023-06-09T17:30:16.628Z,56.44
2023-06-09T17:32:45.024Z,56.88
2023-06-09T17:35:21.642Z,56.72
2023-06-09T17:37:48.426Z,56.90
2023-06-09T17:40:15.522Z,57.28
2023-06-09T17:42:42.548Z,57.21
2023-06-09T17:45:11.461Z,57.52
2023-06-09T17:47:39.170Z,57.25
2023-06-09T17:50:07.338Z,57.84
2023-06-09T17:52:35.508Z,57.21
2023-06-09T17:55:04.576Z,57.89
2023-06-09T17:57:32.082Z,58.60
2023-06-09T18:00:00.478Z,58.89
2023-06-09T18:02:27.649Z,59.60
2023-06-09T18:04:54.567Z,60.20
2023-06-09T18:07:21.347Z,60.79
2023-06-09T18:09:48.054Z,61.37
2023-06-09T18:12:14.935Z,61.75
2023-06-09T18:14:41.890Z,62.18
2023-06-09T18:17:08.614Z,62.28
2023-06-09T18:19:36.889Z,62.52
2023-06-09T18:22:04.364Z,62.95
2023-06-09T18:24:31.116Z,63.30
2023-06-09T18:26:58.116Z,63.54
2023-06-09T18:29:24.813Z,63.92
2023-06-09T18:31:51.419Z,64.14
2023-06-09T18:34:18.124Z,64.17
2023-06-09T18:36:45.078Z,64.42
2023-06-09T18:39:11.710Z,64.71
2023-06-09T18:41:38.487Z,64.79
2023-06-09T18:44:17.712Z,65.18
2023-06-09T18:46:45.262Z,65.41
2023-06-09T18:49:12.326Z,65.53
2023-06-09T18:51:39.180Z,65.83
2023-06-09T18:54:06.110Z,66.22
2023-06-09T18:56:33.152Z,66.41
2023-06-09T18:59:00.297Z,66.73
2023-06-09T19:01:27.465Z,66.68
2023-06-09T19:03:54.406Z,66.93
2023-06-09T19:06:21.288Z,67.17
2023-06-09T19:08:48.198Z,67.35
2023-06-09T19:11:15.026Z,67.46
2023-06-09T19:13:41.914Z,67.77
2023-06-09T19:16:08.614Z,68.18
2023-06-09T19:18:35.398Z,68.38
2023-06-09T19:21:02.984Z,68.29
2023-06-09T19:23:29.697Z,68.42
2023-06-09T19:25:56.535Z,68.82
2023-06-09T19:28:23.549Z,68.84
2023-06-09T19:30:50.616Z,69.12
2023-06-09T19:33:17.398Z,69.04
2023-06-09T19:35:44.181Z,69.24
2023-06-09T19:38:11.140Z,69.19
2023-06-09T19:40:37.844Z,69.24
2023-06-09T19:43:04.540Z,69.55
2023-06-09T19:45:31.192Z,69.67
2023-06-09T19:47:57.885Z,69.63
2023-06-09T19:50:24.526Z,69.81
2023-06-09T19:52:52.225Z,69.72
2023-06-09T19:55:18.988Z,69.79
2023-06-09T19:57:45.873Z,69.75
2023-06-09T20:00:15.179Z,70.01
2023-06-09T20:02:42.474Z,70.03
2023-06-09T20:05:09.870Z,70.08
2023-06-09T20:07:36.773Z,70.48
2023-06-09T20:10:03.429Z,70.76
2023-06-09T20:12:30.184Z,70.78
2023-06-09T20:14:56.904Z,71.09
2023-06-09T20:17:23.814Z,71.25
2023-06-09T20:19:50.819Z,71.44
2023-06-09T20:22:19.209Z,71.29
2023-06-09T20:24:46.112Z,71.52
2023-06-09T20:27:12.959Z,70.97
2023-06-09T20:29:39.734Z,70.94
2023-06-09T20:32:07.067Z,70.81
2023-06-09T20:34:33.766Z,70.80
2023-06-09T20:37:00.783Z,70.76
2023-06-09T20:39:27.417Z,70.86
2023-06-09T20:41:54.249Z,71.16
2023-06-09T20:44:21.524Z,71.43
2023-06-09T20:46:48.393Z,71.32
2023-06-09T20:49:16.895Z,71.37
2023-06-09T20:51:44.132Z,71.58
2023-06-09T20:54:16.076Z,71.60
2023-06-09T20:56:42.996Z,71.58
2023-06-09T20:59:09.770Z,71.29
2023-06-09T21:01:37.148Z,71.63
2023-06-09T21:04:04.874Z,71.76
2023-06-09T21:06:35.847Z,71.88
2023-06-09T21:09:05.353Z,71.68
2023-06-09T21:11:32.407Z,72.06
2023-06-09T21:13:59.392Z,71.94
2023-06-09T21:16:26.370Z,72.14
2023-06-09T21:18:53.105Z,72.34
2023-06-09T21:21:19.814Z,72.31
2023-06-09T21:23:46.581Z,72.45
2023-06-09T21:26:13.604Z,72.48
2023-06-09T21:28:43.081Z,72.65
2023-06-09T21:31:11.957Z,72.32
2023-06-09T21:33:39.039Z,72.71
2023-06-09T21:36:06.651Z,72.95
2023-06-09T21:38:40.492Z,72.83
2023-06-09T21:41:07.681Z,72.72
2023-06-09T21:43:34.416Z,73.01
2023-06-09T21:46:08.518Z,72.93
2023-06-09T21:48:35.534Z,73.11
2023-06-09T21:51:02.158Z,73.09
2023-06-09T21:53:35.206Z,73.02
2023-06-09T21:56:02.056Z,73.00
2023-06-09T21:58:28.839Z,73.18
2023-06-09T22:01:02.449Z,73.33
2023-06-09T22:03:29.299Z,73.46
2023-06-09T22:06:16.093Z,73.50
2023-06-09T22:08:49.623Z,73.72
2023-06-09T22:11:23.398Z,73.63
2023-06-09T22:13:50.149Z,73.48
2023-06-09T22:16:17.066Z,73.42
2023-06-09T22:18:52.036Z,73.90
2023-06-09T22:21:18.892Z,73.91
2023-06-09T22:23:45.601Z,73.72
2023-06-09T22:26:19.187Z,73.82
2023-06-09T22:28:46.056Z,73.73
2023-06-09T22:31:14.479Z,73.71
2023-06-09T22:33:48.078Z,73.80
2023-06-09T22:36:15.746Z,73.81
2023-06-09T22:38:42.376Z,73.78
2023-06-09T22:41:16.049Z,73.84
2023-06-09T22:43:42.711Z,73.92
2023-06-09T22:46:09.383Z,74.04
2023-06-09T22:48:45.114Z,73.85
2023-06-09T22:51:11.819Z,74.10
2023-06-09T22:53:38.485Z,74.10
2023-06-09T22:56:12.242Z,73.98
2023-06-09T22:58:39.154Z,74.10
2023-06-09T23:01:06.042Z,74.17
2023-06-09T23:03:42.051Z,74.17
2023-06-09T23:06:18.425Z,74.01
2023-06-09T23:08:59.045Z,74.04
2023-06-09T23:11:26.578Z,74.10
2023-06-09T23:13:54.251Z,74.04
2023-06-09T23:16:28.055Z,74.18
2023-06-09T23:18:54.975Z,74.11
2023-06-09T23:21:23.293Z,74.01
2023-06-09T23:24:00.108Z,74.03
2023-06-09T23:26:27.504Z,74.24
2023-06-09T23:28:54.078Z,74.36
2023-06-09T23:31:28.010Z,74.43
2023-06-09T23:33:54.720Z,74.20
2023-06-09T23:36:21.422Z,74.45
2023-06-09T23:38:55.176Z,74.76
2023-06-09T23:41:22.585Z,74.52
2023-06-09T23:43:49.232Z,74.52
2023-06-09T23:46:23.619Z,74.49
2023-06-09T23:48:50.995Z,74.56
2023-06-09T23:51:18.438Z,74.64
2023-06-09T23:53:52.183Z,74.84
2023-06-09T23:56:19.169Z,75.09
2023-06-09T23:58:45.832Z,75.03
